sensor_id;sensor_type;location;lat;lon;timestamp;P1;durP1;ratioP1;P2;durP2;ratioP2
17794;SDS011;9021;50.882;4.326;2022-10-18T12:10:23;9.82;;;1.98;;
17794;SDS011;9021;50.882;4.326;2022-10-18T12:12:57;10.25;;;2.40;;
17794;SDS011;9021;50.882;4.326;2022-10-18T12:15:26;9.43;;;2.25;;
17794;SDS011;9021;50.882;4.326;2022-10-18T12:17:57;9.25;;;2.03;;
17794;SDS011;9021;50.882;4.326;2022-10-18T12:25:34;13.65;;;2.58;;
17794;SDS011;9021;50.882;4.326;2022-10-18T12:28:06;7.35;;;2.05;;
17794;SDS011;9021;50.882;4.326;2022-10-18T12:33:48;8.52;;;1.70;;
17794;SDS011;9021;50.882;4.326;2022-10-18T12:36:21;7.50;;;2.28;;
17794;SDS011;9021;50.882;4.326;2022-10-18T12:41:25;9.05;;;1.83;;
17794;SDS011;9021;50.882;4.326;2022-10-18T12:44:06;12.70;;;3.28;;
17794;SDS011;9021;50.882;4.326;2022-10-18T12:47:04;6.25;;;1.35;;
17794;SDS011;9021;50.882;4.326;2022-10-18T12:49:31;6.75;;;1.40;;
17794;SDS011;9021;50.882;4.326;2022-10-18T12:52:06;7.22;;;1.40;;
17794;SDS011;9021;50.882;4.326;2022-10-18T12:55:46;10.25;;;1.90;;
17794;SDS011;9021;50.882;4.326;2022-10-18T13:16:30;7.17;;;1.83;;
17794;SDS011;9021;50.882;4.326;2022-10-18T13:19:22;17.00;;;2.30;;
17794;SDS011;9021;50.882;4.326;2022-10-18T13:21:59;7.88;;;1.60;;
17794;SDS011;9021;50.882;4.326;2022-10-18T13:35:00;15.85;;;2.33;;
17794;SDS011;9021;50.882;4.326;2022-10-18T13:37:26;21.27;;;2.75;;
17794;SDS011;9021;50.882;4.326;2022-10-18T13:40:13;10.88;;;1.95;;
17794;SDS011;9021;50.882;4.326;2022-10-18T13:42:46;9.35;;;1.65;;
17794;SDS011;9021;50.882;4.326;2022-10-18T13:45:41;7.72;;;1.88;;
17794;SDS011;9021;50.882;4.326;2022-10-18T13:50:56;11.50;;;1.77;;
17794;SDS011;9021;50.882;4.326;2022-10-18T13:53:42;7.05;;;1.80;;
17794;SDS011;9021;50.882;4.326;2022-10-18T14:07:33;11.00;;;1.60;;
17794;SDS011;9021;50.882;4.326;2022-10-18T14:10:00;13.27;;;2.33;;
17794;SDS011;9021;50.882;4.326;2022-10-18T14:12:39;13.02;;;2.03;;
17794;SDS011;9021;50.882;4.326;2022-10-18T14:15:28;8.80;;;1.80;;
17794;SDS011;9021;50.882;4.326;2022-10-18T14:18:01;7.90;;;2.05;;
17794;SDS011;9021;50.882;4.326;2022-10-18T14:20:32;7.20;;;1.70;;
17794;SDS011;9021;50.882;4.326;2022-10-18T14:23:11;7.63;;;1.80;;
17794;SDS011;9021;50.882;4.326;2022-10-18T14:25:41;10.52;;;1.95;;
17794;SDS011;9021;50.882;4.326;2022-10-18T14:28:12;8.95;;;1.83;;
17794;SDS011;9021;50.882;4.326;2022-10-18T14:30:52;9.10;;;2.65;;
17794;SDS011;9021;50.882;4.326;2022-10-18T14:33:41;8.57;;;1.80;;
17794;SDS011;9021;50.882;4.326;2022-10-18T14:38:50;9.75;;;1.40;;
17794;SDS011;9021;50.882;4.326;2022-10-18T14:42:16;8.60;;;1.55;;
17794;SDS011;9021;50.882;4.326;2022-10-18T14:49:19;16.30;;;1.92;;
17794;SDS011;9021;50.882;4.326;2022-10-18T14:54:22;12.45;;;1.92;;
17794;SDS011;9021;50.882;4.326;2022-10-18T14:56:54;11.02;;;2.25;;
17794;SDS011;9021;50.882;4.326;2022-10-18T15:04:34;10.38;;;1.80;;
17794;SDS011;9021;50.882;4.326;2022-10-18T15:07:01;10.00;;;1.70;;
17794;SDS011;9021;50.882;4.326;2022-10-18T15:09:29;9.98;;;2.05;;
17794;SDS011;9021;50.882;4.326;2022-10-18T15:11:56;11.15;;;1.90;;
17794;SDS011;9021;50.882;4.326;2022-10-18T15:14:25;6.45;;;1.50;;
17794;SDS011;9021;50.882;4.326;2022-10-18T15:16:53;8.68;;;1.70;;
17794;SDS011;9021;50.882;4.326;2022-10-18T15:19:26;7.03;;;1.52;;
17794;SDS011;9021;50.882;4.326;2022-10-18T15:21:56;10.15;;;2.35;;
17794;SDS011;9021;50.882;4.326;2022-10-18T15:24:28;6.38;;;1.95;;
17794;SDS011;9021;50.882;4.326;2022-10-18T15:29:45;10.77;;;1.92;;
17794;SDS011;9021;50.882;4.326;2022-10-18T15:34:40;10.18;;;1.63;;
17794;SDS011;9021;50.882;4.326;2022-10-18T15:39:42;15.48;;;2.45;;
17794;SDS011;9021;50.882;4.326;2022-10-18T15:44:53;8.45;;;1.90;;
17794;SDS011;9021;50.882;4.326;2022-10-18T15:49:51;9.98;;;1.80;;
17794;SDS011;9021;50.882;4.326;2022-10-18T15:52:26;12.07;;;2.20;;
17794;SDS011;9021;50.882;4.326;2022-10-18T15:54:54;8.85;;;1.85;;
17794;SDS011;9021;50.882;4.326;2022-10-18T15:57:21;12.27;;;2.08;;
17794;SDS011;9021;50.882;4.326;2022-10-18T15:59:50;14.75;;;4.35;;
17794;SDS011;9021;50.882;4.326;2022-10-18T16:02:17;12.10;;;2.20;;
17794;SDS011;9021;50.882;4.326;2022-10-18T16:04:43;12.68;;;2.30;;
17794;SDS011;9021;50.882;4.326;2022-10-18T16:07:10;12.80;;;2.10;;
17794;SDS011;9021;50.882;4.326;2022-10-18T16:12:02;7.22;;;1.70;;
17794;SDS011;9021;50.882;4.326;2022-10-18T16:14:28;8.00;;;1.90;;
17794;SDS011;9021;50.882;4.326;2022-10-18T16:16:56;10.32;;;1.77;;
17794;SDS011;9021;50.882;4.326;2022-10-18T16:19:24;7.85;;;1.95;;
17794;SDS011;9021;50.882;4.326;2022-10-18T16:21:50;11.32;;;1.92;;
17794;SDS011;9021;50.882;4.326;2022-10-18T16:24:17;12.35;;;1.95;;
17794;SDS011;9021;50.882;4.326;2022-10-18T16:26:43;8.85;;;1.80;;
17794;SDS011;9021;50.882;4.326;2022-10-18T16:29:11;14.55;;;3.63;;
17794;SDS011;9021;50.882;4.326;2022-10-18T16:31:38;10.73;;;2.35;;
17794;SDS011;9021;50.882;4.326;2022-10-18T16:34:04;11.05;;;2.00;;
17794;SDS011;9021;50.882;4.326;2022-10-18T16:36:30;13.45;;;1.90;;
17794;SDS011;9021;50.882;4.326;2022-10-18T16:38:57;10.40;;;1.92;;
17794;SDS011;9021;50.882;4.326;2022-10-18T16:41:26;10.70;;;2.28;;
17794;SDS011;9021;50.882;4.326;2022-10-18T16:43:51;12.20;;;2.33;;
17794;SDS011;9021;50.882;4.326;2022-10-18T16:46:19;9.93;;;3.00;;
17794;SDS011;9021;50.882;4.326;2022-10-18T16:48:52;14.50;;;2.88;;
17794;SDS011;9021;50.882;4.326;2022-10-18T16:51:19;11.48;;;1.92;;
17794;SDS011;9021;50.882;4.326;2022-10-18T16:53:45;13.43;;;2.00;;
17794;SDS011;9021;50.882;4.326;2022-10-18T16:56:14;11.80;;;2.85;;
17794;SDS011;9021;50.882;4.326;2022-10-18T16:58:43;10.95;;;1.80;;
17794;SDS011;9021;50.882;4.326;2022-10-18T17:03:40;13.45;;;2.40;;
17794;SDS011;9021;50.882;4.326;2022-10-18T17:06:08;11.40;;;2.38;;
17794;SDS011;9021;50.882;4.326;2022-10-18T17:08:45;13.57;;;2.45;;
17794;SDS011;9021;50.882;4.326;2022-10-18T17:13:37;10.70;;;2.22;;
17794;SDS011;9021;50.882;4.326;2022-10-18T17:16:03;12.70;;;2.67;;
17794;SDS011;9021;50.882;4.326;2022-10-18T17:18:29;12.95;;;2.50;;
17794;SDS011;9021;50.882;4.326;2022-10-18T17:20:56;11.52;;;2.15;;
17794;SDS011;9021;50.882;4.326;2022-10-18T17:23:24;12.68;;;2.10;;
17794;SDS011;9021;50.882;4.326;2022-10-18T17:25:50;12.73;;;2.30;;
17794;SDS011;9021;50.882;4.326;2022-10-18T17:28:16;10.13;;;2.15;;
17794;SDS011;9021;50.882;4.326;2022-10-18T17:30:42;8.95;;;2.28;;
17794;SDS011;9021;50.882;4.326;2022-10-18T17:33:09;13.48;;;2.47;;
17794;SDS011;9021;50.882;4.326;2022-10-18T17:35:35;10.95;;;2.08;;
17794;SDS011;9021;50.882;4.326;2022-10-18T17:40:28;13.52;;;3.10;;
17794;SDS011;9021;50.882;4.326;2022-10-18T17:42:54;15.77;;;2.58;;
17794;SDS011;9021;50.882;4.326;2022-10-18T17:45:20;9.77;;;2.10;;
17794;SDS011;9021;50.882;4.326;2022-10-18T17:47:46;9.93;;;2.47;;
17794;SDS011;9021;50.882;4.326;2022-10-18T17:50:12;14.27;;;1.98;;
17794;SDS011;9021;50.882;4.326;2022-10-18T17:55:11;8.88;;;2.50;;
17794;SDS011;9021;50.882;4.326;2022-10-18T17:57:38;8.38;;;2.10;;
17794;SDS011;9021;50.882;4.326;2022-10-18T18:00:05;13.05;;;2.45;;
17794;SDS011;9021;50.882;4.326;2022-10-18T18:02:33;16.67;;;2.50;;
17794;SDS011;9021;50.882;4.326;2022-10-18T18:05:00;12.75;;;3.65;;
17794;SDS011;9021;50.882;4.326;2022-10-18T18:07:26;11.23;;;2.35;;
17794;SDS011;9021;50.882;4.326;2022-10-18T18:09:51;14.63;;;2.42;;
17794;SDS011;9021;50.882;4.326;2022-10-18T18:12:17;10.05;;;2.10;;
17794;SDS011;9021;50.882;4.326;2022-10-18T18:14:43;11.88;;;2.70;;
17794;SDS011;9021;50.882;4.326;2022-10-18T18:17:08;15.63;;;2.78;;
17794;SDS011;9021;50.882;4.326;2022-10-18T18:19:34;10.38;;;2.63;;
17794;SDS011;9021;50.882;4.326;2022-10-18T18:22:00;8.35;;;2.22;;
17794;SDS011;9021;50.882;4.326;2022-10-18T18:24:26;11.25;;;2.65;;
17794;SDS011;9021;50.882;4.326;2022-10-18T18:26:52;15.43;;;2.72;;
17794;SDS011;9021;50.882;4.326;2022-10-18T18:29:22;9.65;;;1.92;;
17794;SDS011;9021;50.882;4.326;2022-10-18T18:31:49;10.35;;;2.35;;
17794;SDS011;9021;50.882;4.326;2022-10-18T18:34:16;14.13;;;3.35;;
17794;SDS011;9021;50.882;4.326;2022-10-18T18:36:41;13.65;;;3.17;;
17794;SDS011;9021;50.882;4.326;2022-10-18T18:41:44;10.38;;;2.45;;
17794;SDS011;9021;50.882;4.326;2022-10-18T18:44:11;11.98;;;2.55;;
17794;SDS011;9021;50.882;4.326;2022-10-18T18:46:37;14.05;;;3.28;;
17794;SDS011;9021;50.882;4.326;2022-10-18T18:49:03;9.93;;;2.50;;
17794;SDS011;9021;50.882;4.326;2022-10-18T18:51:30;15.10;;;2.53;;
17794;SDS011;9021;50.882;4.326;2022-10-18T18:53:57;8.93;;;2.80;;
17794;SDS011;9021;50.882;4.326;2022-10-18T18:56:24;8.10;;;2.47;;
17794;SDS011;9021;50.882;4.326;2022-10-18T18:58:51;10.77;;;2.30;;
17794;SDS011;9021;50.882;4.326;2022-10-18T19:01:19;12.55;;;3.65;;
17794;SDS011;9021;50.882;4.326;2022-10-18T19:03:51;11.60;;;3.80;;
17794;SDS011;9021;50.882;4.326;2022-10-18T19:06:23;10.85;;;3.10;;
17794;SDS011;9021;50.882;4.326;2022-10-18T19:08:51;9.75;;;2.70;;
17794;SDS011;9021;50.882;4.326;2022-10-18T19:11:19;10.98;;;3.08;;
17794;SDS011;9021;50.882;4.326;2022-10-18T19:13:46;16.67;;;3.78;;
17794;SDS011;9021;50.882;4.326;2022-10-18T19:21:27;13.10;;;3.42;;
17794;SDS011;9021;50.882;4.326;2022-10-18T19:23:55;12.40;;;3.28;;
17794;SDS011;9021;50.882;4.326;2022-10-18T19:26:26;11.82;;;2.72;;
17794;SDS011;9021;50.882;4.326;2022-10-18T19:28:52;10.95;;;2.95;;
17794;SDS011;9021;50.882;4.326;2022-10-18T19:31:18;16.63;;;3.58;;
17794;SDS011;9021;50.882;4.326;2022-10-18T19:33:44;13.93;;;2.80;;
17794;SDS011;9021;50.882;4.326;2022-10-18T19:36:09;13.13;;;2.97;;
17794;SDS011;9021;50.882;4.326;2022-10-18T19:38:35;12.90;;;3.67;;
17794;SDS011;9021;50.882;4.326;2022-10-18T19:41:00;8.82;;;2.30;;
17794;SDS011;9021;50.882;4.326;2022-10-18T19:43:26;15.73;;;3.38;;
17794;SDS011;9021;50.882;4.326;2022-10-18T19:45:52;11.43;;;2.67;;
17794;SDS011;9021;50.882;4.326;2022-10-18T19:48:18;12.82;;;2.80;;
17794;SDS011;9021;50.882;4.326;2022-10-18T19:50:43;12.23;;;2.60;;
17794;SDS011;9021;50.882;4.326;2022-10-18T19:53:09;15.43;;;3.90;;
17794;SDS011;9021;50.882;4.326;2022-10-18T19:55:34;12.38;;;2.83;;
17794;SDS011;9021;50.882;4.326;2022-10-18T19:58:00;10.43;;;2.67;;
17794;SDS011;9021;50.882;4.326;2022-10-18T20:00:26;10.65;;;2.90;;
17794;SDS011;9021;50.882;4.326;2022-10-18T20:02:51;10.85;;;3.05;;
17794;SDS011;9021;50.882;4.326;2022-10-18T20:05:17;11.52;;;2.40;;
17794;SDS011;9021;50.882;4.326;2022-10-18T20:07:42;10.07;;;2.63;;
17794;SDS011;9021;50.882;4.326;2022-10-18T20:10:09;10.70;;;2.78;;
17794;SDS011;9021;50.882;4.326;2022-10-18T20:12:35;12.60;;;2.88;;
17794;SDS011;9021;50.882;4.326;2022-10-18T20:15:04;13.35;;;2.67;;
17794;SDS011;9021;50.882;4.326;2022-10-18T20:17:32;10.35;;;2.50;;
17794;SDS011;9021;50.882;4.326;2022-10-18T20:19:58;9.50;;;2.55;;
17794;SDS011;9021;50.882;4.326;2022-10-18T20:22:24;10.07;;;2.83;;
17794;SDS011;9021;50.882;4.326;2022-10-18T20:24:50;12.50;;;3.47;;
17794;SDS011;9021;50.882;4.326;2022-10-18T20:27:15;10.48;;;2.80;;
17794;SDS011;9021;50.882;4.326;2022-10-18T20:29:41;10.30;;;3.17;;
17794;SDS011;9021;50.882;4.326;2022-10-18T20:32:06;15.80;;;3.45;;
17794;SDS011;9021;50.882;4.326;2022-10-18T20:34:32;12.10;;;3.22;;
17794;SDS011;9021;50.882;4.326;2022-10-18T20:36:58;9.63;;;3.13;;
17794;SDS011;9021;50.882;4.326;2022-10-18T20:39:24;13.88;;;3.53;;
17794;SDS011;9021;50.882;4.326;2022-10-18T20:41:49;11.57;;;3.40;;
17794;SDS011;9021;50.882;4.326;2022-10-18T20:44:15;8.48;;;3.38;;
17794;SDS011;9021;50.882;4.326;2022-10-18T20:46:43;11.52;;;3.30;;
17794;SDS011;9021;50.882;4.326;2022-10-18T20:49:10;9.80;;;3.70;;
17794;SDS011;9021;50.882;4.326;2022-10-18T20:51:38;13.98;;;3.53;;
17794;SDS011;9021;50.882;4.326;2022-10-18T20:54:04;9.48;;;3.47;;
17794;SDS011;9021;50.882;4.326;2022-10-18T20:56:31;15.80;;;3.38;;
17794;SDS011;9021;50.882;4.326;2022-10-18T20:58:58;10.60;;;3.10;;
17794;SDS011;9021;50.882;4.326;2022-10-18T21:01:25;13.38;;;3.63;;
17794;SDS011;9021;50.882;4.326;2022-10-18T21:03:52;15.23;;;3.33;;
17794;SDS011;9021;50.882;4.326;2022-10-18T21:06:20;11.88;;;3.90;;
17794;SDS011;9021;50.882;4.326;2022-10-18T21:08:51;8.10;;;3.03;;
17794;SDS011;9021;50.882;4.326;2022-10-18T21:11:21;12.85;;;3.80;;
17794;SDS011;9021;50.882;4.326;2022-10-18T21:13:51;7.93;;;3.28;;
17794;SDS011;9021;50.882;4.326;2022-10-18T21:16:18;11.32;;;3.72;;
17794;SDS011;9021;50.882;4.326;2022-10-18T21:18:44;17.25;;;3.42;;
17794;SDS011;9021;50.882;4.326;2022-10-18T21:21:13;11.27;;;3.67;;
17794;SDS011;9021;50.882;4.326;2022-10-18T21:23:44;16.63;;;3.63;;
17794;SDS011;9021;50.882;4.326;2022-10-18T21:26:12;9.25;;;3.50;;
17794;SDS011;9021;50.882;4.326;2022-10-18T21:28:39;17.38;;;3.53;;
17794;SDS011;9021;50.882;4.326;2022-10-18T21:31:09;13.30;;;3.70;;
17794;SDS011;9021;50.882;4.326;2022-10-18T21:33:38;7.82;;;3.20;;
17794;SDS011;9021;50.882;4.326;2022-10-18T21:36:04;7.65;;;2.92;;
17794;SDS011;9021;50.882;4.326;2022-10-18T21:38:29;9.52;;;3.42;;
17794;SDS011;9021;50.882;4.326;2022-10-18T21:40:55;14.43;;;3.92;;
17794;SDS011;9021;50.882;4.326;2022-10-18T21:43:21;9.55;;;3.67;;
17794;SDS011;9021;50.882;4.326;2022-10-18T21:45:46;10.88;;;3.92;;
17794;SDS011;9021;50.882;4.326;2022-10-18T21:48:12;10.57;;;3.42;;
17794;SDS011;9021;50.882;4.326;2022-10-18T21:50:37;12.10;;;3.42;;
17794;SDS011;9021;50.882;4.326;2022-10-18T21:53:03;11.68;;;3.22;;
17794;SDS011;9021;50.882;4.326;2022-10-18T21:55:29;14.65;;;4.07;;
17794;SDS011;9021;50.882;4.326;2022-10-18T21:57:54;11.40;;;4.47;;
17794;SDS011;9021;50.882;4.326;2022-10-18T22:00:20;14.95;;;4.68;;
17794;SDS011;9021;50.882;4.326;2022-10-18T22:02:45;11.30;;;4.65;;
17794;SDS011;9021;50.882;4.326;2022-10-18T22:05:11;9.60;;;3.92;;
17794;SDS011;9021;50.882;4.326;2022-10-18T22:07:37;10.68;;;4.25;;
17794;SDS011;9021;50.882;4.326;2022-10-18T22:10:02;11.43;;;4.15;;
17794;SDS011;9021;50.882;4.326;2022-10-18T22:12:28;12.70;;;3.63;;
17794;SDS011;9021;50.882;4.326;2022-10-18T22:14:54;14.20;;;5.22;;
17794;SDS011;9021;50.882;4.326;2022-10-18T22:17:19;16.17;;;5.25;;
17794;SDS011;9021;50.882;4.326;2022-10-18T22:19:45;12.43;;;4.03;;
17794;SDS011;9021;50.882;4.326;2022-10-18T22:22:11;11.90;;;4.47;;
17794;SDS011;9021;50.882;4.326;2022-10-18T22:24:37;11.68;;;4.18;;
17794;SDS011;9021;50.882;4.326;2022-10-18T22:27:02;10.20;;;4.22;;
17794;SDS011;9021;50.882;4.326;2022-10-18T22:29:28;10.45;;;3.90;;
17794;SDS011;9021;50.882;4.326;2022-10-18T22:31:54;9.43;;;3.67;;
17794;SDS011;9021;50.882;4.326;2022-10-18T22:34:20;14.02;;;4.22;;
17794;SDS011;9021;50.882;4.326;2022-10-18T22:36:48;9.55;;;4.03;;
17794;SDS011;9021;50.882;4.326;2022-10-18T22:41:41;12.47;;;4.23;;
17794;SDS011;9021;50.882;4.326;2022-10-18T22:44:07;14.93;;;4.72;;
17794;SDS011;9021;50.882;4.326;2022-10-18T22:46:36;12.27;;;3.72;;
17794;SDS011;9021;50.882;4.326;2022-10-18T22:49:02;16.05;;;4.35;;
17794;SDS011;9021;50.882;4.326;2022-10-18T22:51:27;15.15;;;4.45;;
17794;SDS011;9021;50.882;4.326;2022-10-18T22:53:53;10.25;;;4.00;;
17794;SDS011;9021;50.882;4.326;2022-10-18T22:56:19;10.18;;;4.10;;
17794;SDS011;9021;50.882;4.326;2022-10-18T22:58:46;10.82;;;4.25;;
17794;SDS011;9021;50.882;4.326;2022-10-18T23:01:13;10.73;;;3.80;;
17794;SDS011;9021;50.882;4.326;2022-10-18T23:03:41;12.05;;;4.82;;
17794;SDS011;9021;50.882;4.326;2022-10-18T23:08:53;10.15;;;4.63;;
17794;SDS011;9021;50.882;4.326;2022-10-18T23:11:22;10.95;;;4.70;;
17794;SDS011;9021;50.882;4.326;2022-10-18T23:13:48;11.73;;;4.95;;
17794;SDS011;9021;50.882;4.326;2022-10-18T23:16:14;13.95;;;4.28;;
17794;SDS011;9021;50.882;4.326;2022-10-18T23:18:41;11.90;;;4.72;;
17794;SDS011;9021;50.882;4.326;2022-10-18T23:21:07;13.73;;;5.15;;
17794;SDS011;9021;50.882;4.326;2022-10-18T23:23:35;14.52;;;4.65;;
17794;SDS011;9021;50.882;4.326;2022-10-18T23:26:03;10.27;;;4.40;;
17794;SDS011;9021;50.882;4.326;2022-10-18T23:28:37;12.10;;;4.63;;
17794;SDS011;9021;50.882;4.326;2022-10-18T23:31:08;8.88;;;4.15;;
17794;SDS011;9021;50.882;4.326;2022-10-18T23:33:41;7.78;;;4.53;;
17794;SDS011;9021;50.882;4.326;2022-10-18T23:36:07;15.25;;;5.18;;
17794;SDS011;9021;50.882;4.326;2022-10-18T23:38:33;19.52;;;5.03;;
17794;SDS011;9021;50.882;4.326;2022-10-18T23:40:59;10.63;;;4.60;;
17794;SDS011;9021;50.882;4.326;2022-10-18T23:43:25;11.77;;;5.15;;
17794;SDS011;9021;50.882;4.326;2022-10-18T23:45:51;15.57;;;5.30;;
17794;SDS011;9021;50.882;4.326;2022-10-18T23:48:16;11.88;;;4.88;;
17794;SDS011;9021;50.882;4.326;2022-10-18T23:50:42;13.23;;;5.15;;
17794;SDS011;9021;50.882;4.326;2022-10-18T23:53:08;14.95;;;5.20;;
17794;SDS011;9021;50.882;4.326;2022-10-18T23:57:59;16.17;;;5.60;;
